sensor_id;sensor_type;location;lat;lon;timestamp;temperature;humidity
5041;DHT22;2539;52.568;13.364;2022-12-07T00:01:14;2.90;99.90
5041;DHT22;2539;52.568;13.364;2022-12-07T00:03:42;2.80;99.90
5041;DHT22;2539;52.568;13.364;2022-12-07T00:06:11;2.80;99.90
5041;DHT22;2539;52.568;13.364;2022-12-07T00:08:38;2.80;99.90
5041;DHT22;2539;52.568;13.364;2022-12-07T00:11:07;2.70;99.90
5041;DHT22;2539;52.568;13.364;2022-12-07T00:13:34;2.70;99.90
5041;DHT22;2539;52.568;13.364;2022-12-07T00:16:02;2.70;99.90
5041;DHT22;2539;52.568;13.364;2022-12-07T00:18:28;2.60;99.90
5041;DHT22;2539;52.568;13.364;2022-12-07T00:21:00;2.70;99.90
5041;DHT22;2539;52.568;13.364;2022-12-07T00:23:27;1.80;99.90
5041;DHT22;2539;52.568;13.364;2022-12-07T00:25:53;2.70;99.90
5041;DHT22;2539;52.568;13.364;2022-12-07T00:28:19;2.70;99.90
5041;DHT22;2539;52.568;13.364;2022-12-07T00:30:46;2.80;99.90
5041;DHT22;2539;52.568;13.364;2022-12-07T00:33:12;2.70;99.90
5041;DHT22;2539;52.568;13.364;2022-12-07T00:35:38;2.80;99.90
5041;DHT22;2539;52.568;13.364;2022-12-07T00:38:04;2.80;99.90
5041;DHT22;2539;52.568;13.364;2022-12-07T00:40:31;2.70;99.90
5041;DHT22;2539;52.568;13.364;2022-12-07T00:42:57;2.70;99.90
5041;DHT22;2539;52.568;13.364;2022-12-07T00:45:24;2.80;99.90
5041;DHT22;2539;52.568;13.364;2022-12-07T00:47:50;2.70;99.90
5041;DHT22;2539;52.568;13.364;2022-12-07T00:50:16;2.70;99.90
5041;DHT22;2539;52.568;13.364;2022-12-07T00:52:43;3.20;99.90
5041;DHT22;2539;52.568;13.364;2022-12-07T00:55:09;2.60;99.90
5041;DHT22;2539;52.568;13.364;2022-12-07T00:57:36;2.50;99.90
5041;DHT22;2539;52.568;13.364;2022-12-07T01:00:02;2.40;99.90
5041;DHT22;2539;52.568;13.364;2022-12-07T01:02:29;2.30;99.90
5041;DHT22;2539;52.568;13.364;2022-12-07T01:04:55;2.30;99.90
5041;DHT22;2539;52.568;13.364;2022-12-07T01:07:23;2.30;99.90
5041;DHT22;2539;52.568;13.364;2022-12-07T01:09:49;2.20;99.90
5041;DHT22;2539;52.568;13.364;2022-12-07T01:12:15;2.20;99.90
5041;DHT22;2539;52.568;13.364;2022-12-07T01:14:41;2.30;99.90
5041;DHT22;2539;52.568;13.364;2022-12-07T01:17:08;2.40;99.90
5041;DHT22;2539;52.568;13.364;2022-12-07T01:19:34;2.40;99.90
5041;DHT22;2539;52.568;13.364;2022-12-07T01:22:00;2.40;99.90
5041;DHT22;2539;52.568;13.364;2022-12-07T01:24:26;2.40;99.90
5041;DHT22;2539;52.568;13.364;2022-12-07T01:26:53;2.50;99.90
5041;DHT22;2539;52.568;13.364;2022-12-07T01:29:19;2.40;99.90
5041;DHT22;2539;52.568;13.364;2022-12-07T01:31:48;2.50;99.90
5041;DHT22;2539;52.568;13.364;2022-12-07T01:34:14;2.50;99.90
5041;DHT22;2539;52.568;13.364;2022-12-07T01:36:41;2.40;99.90
5041;DHT22;2539;52.568;13.364;2022-12-07T01:39:09;2.40;99.90
5041;DHT22;2539;52.568;13.364;2022-12-07T01:41:38;2.40;99.90
5041;DHT22;2539;52.568;13.364;2022-12-07T01:46:52;2.40;99.90
5041;DHT22;2539;52.568;13.364;2022-12-07T01:49:33;2.40;99.90
5041;DHT22;2539;52.568;13.364;2022-12-07T01:52:13;2.50;99.90
5041;DHT22;2539;52.568;13.364;2022-12-07T01:54:42;2.50;99.90
5041;DHT22;2539;52.568;13.364;2022-12-07T01:57:10;2.50;99.90
5041;DHT22;2539;52.568;13.364;2022-12-07T01:59:38;2.50;99.90
5041;DHT22;2539;52.568;13.364;2022-12-07T02:02:08;2.50;99.90
5041;DHT22;2539;52.568;13.364;2022-12-07T02:04:36;2.40;99.90
5041;DHT22;2539;52.568;13.364;2022-12-07T02:07:02;2.50;99.90
5041;DHT22;2539;52.568;13.364;2022-12-07T02:09:28;2.40;99.90
5041;DHT22;2539;52.568;13.364;2022-12-07T02:11:54;2.40;99.90
5041;DHT22;2539;52.568;13.364;2022-12-07T02:14:21;2.40;99.90
5041;DHT22;2539;52.568;13.364;2022-12-07T02:28:09;2.20;99.90
5041;DHT22;2539;52.568;13.364;2022-12-07T02:30:43;2.20;99.90
5041;DHT22;2539;52.568;13.364;2022-12-07T02:33:16;2.20;99.90
5041;DHT22;2539;52.568;13.364;2022-12-07T02:36:04;2.20;99.90
5041;DHT22;2539;52.568;13.364;2022-12-07T02:38:51;2.10;99.90
5041;DHT22;2539;52.568;13.364;2022-12-07T02:41:25;2.10;99.90
5041;DHT22;2539;52.568;13.364;2022-12-07T02:43:56;2.10;99.90
5041;DHT22;2539;52.568;13.364;2022-12-07T02:46:28;2.10;99.90
5041;DHT22;2539;52.568;13.364;2022-12-07T02:48:56;2.10;99.90
5041;DHT22;2539;52.568;13.364;2022-12-07T02:51:25;2.20;99.90
5041;DHT22;2539;52.568;13.364;2022-12-07T02:53:55;2.20;99.90
5041;DHT22;2539;52.568;13.364;2022-12-07T02:56:32;2.20;99.90
5041;DHT22;2539;52.568;13.364;2022-12-07T02:59:36;2.30;99.90
5041;DHT22;2539;52.568;13.364;2022-12-07T03:08:14;2.20;99.90
5041;DHT22;2539;52.568;13.364;2022-12-07T03:11:08;2.20;99.90
5041;DHT22;2539;52.568;13.364;2022-12-07T03:14:15;4.00;99.90
5041;DHT22;2539;52.568;13.364;2022-12-07T03:16:57;2.20;99.90
5041;DHT22;2539;52.568;13.364;2022-12-07T03:19:26;2.20;99.90
5041;DHT22;2539;52.568;13.364;2022-12-07T03:22:00;2.20;99.90
5041;DHT22;2539;52.568;13.364;2022-12-07T03:24:31;2.30;99.90
5041;DHT22;2539;52.568;13.364;2022-12-07T03:27:08;2.40;99.90
5041;DHT22;2539;52.568;13.364;2022-12-07T03:29:40;2.40;99.90
5041;DHT22;2539;52.568;13.364;2022-12-07T03:35:21;2.50;99.90
5041;DHT22;2539;52.568;13.364;2022-12-07T03:37:56;2.50;99.90
5041;DHT22;2539;52.568;13.364;2022-12-07T03:40:32;2.50;99.90
5041;DHT22;2539;52.568;13.364;2022-12-07T03:43:00;2.50;99.90
5041;DHT22;2539;52.568;13.364;2022-12-07T03:45:40;2.50;99.90
5041;DHT22;2539;52.568;13.364;2022-12-07T03:48:21;2.60;99.90
5041;DHT22;2539;52.568;13.364;2022-12-07T03:50:52;2.60;99.90
5041;DHT22;2539;52.568;13.364;2022-12-07T03:53:29;2.60;99.90
5041;DHT22;2539;52.568;13.364;2022-12-07T03:55:57;2.60;99.90
5041;DHT22;2539;52.568;13.364;2022-12-07T03:58:24;2.60;99.90
5041;DHT22;2539;52.568;13.364;2022-12-07T04:00:51;2.70;99.90
5041;DHT22;2539;52.568;13.364;2022-12-07T04:03:18;2.70;99.90
5041;DHT22;2539;52.568;13.364;2022-12-07T04:05:44;2.50;99.90
5041;DHT22;2539;52.568;13.364;2022-12-07T04:08:11;2.70;99.90
5041;DHT22;2539;52.568;13.364;2022-12-07T04:10:37;2.80;99.90
5041;DHT22;2539;52.568;13.364;2022-12-07T04:13:03;2.70;99.90
5041;DHT22;2539;52.568;13.364;2022-12-07T04:15:29;2.80;99.90
5041;DHT22;2539;52.568;13.364;2022-12-07T04:17:56;2.60;99.90
5041;DHT22;2539;52.568;13.364;2022-12-07T04:20:22;2.70;99.90
5041;DHT22;2539;52.568;13.364;2022-12-07T04:22:48;2.70;99.90
5041;DHT22;2539;52.568;13.364;2022-12-07T04:25:15;2.70;99.90
5041;DHT22;2539;52.568;13.364;2022-12-07T04:27:41;2.80;99.90
5041;DHT22;2539;52.568;13.364;2022-12-07T04:30:08;2.80;99.90
5041;DHT22;2539;52.568;13.364;2022-12-07T04:32:34;2.80;99.90
5041;DHT22;2539;52.568;13.364;2022-12-07T04:35:01;2.80;99.90
5041;DHT22;2539;52.568;13.364;2022-12-07T04:37:27;2.80;99.90
5041;DHT22;2539;52.568;13.364;2022-12-07T04:39:53;2.80;99.90
5041;DHT22;2539;52.568;13.364;2022-12-07T04:42:20;2.80;99.90
5041;DHT22;2539;52.568;13.364;2022-12-07T04:44:46;2.80;99.90
5041;DHT22;2539;52.568;13.364;2022-12-07T04:47:12;2.80;99.90
5041;DHT22;2539;52.568;13.364;2022-12-07T04:49:38;2.70;99.90
5041;DHT22;2539;52.568;13.364;2022-12-07T04:52:05;2.80;99.90
5041;DHT22;2539;52.568;13.364;2022-12-07T04:54:31;2.40;99.90
5041;DHT22;2539;52.568;13.364;2022-12-07T04:56:57;2.80;99.90
5041;DHT22;2539;52.568;13.364;2022-12-07T04:59:23;2.90;99.90
5041;DHT22;2539;52.568;13.364;2022-12-07T05:01:50;2.70;99.90
5041;DHT22;2539;52.568;13.364;2022-12-07T05:04:16;2.90;99.90
5041;DHT22;2539;52.568;13.364;2022-12-07T05:06:43;2.90;99.90
5041;DHT22;2539;52.568;13.364;2022-12-07T05:09:10;3.00;99.90
5041;DHT22;2539;52.568;13.364;2022-12-07T05:11:36;3.00;99.90
5041;DHT22;2539;52.568;13.364;2022-12-07T05:14:14;3.00;99.90
5041;DHT22;2539;52.568;13.364;2022-12-07T05:16:41;3.00;99.90
5041;DHT22;2539;52.568;13.364;2022-12-07T05:19:07;3.00;99.90
5041;DHT22;2539;52.568;13.364;2022-12-07T05:21:33;3.00;99.90
5041;DHT22;2539;52.568;13.364;2022-12-07T05:24:00;3.10;99.90
5041;DHT22;2539;52.568;13.364;2022-12-07T05:26:26;3.10;99.90
5041;DHT22;2539;52.568;13.364;2022-12-07T05:28:53;3.10;99.90
5041;DHT22;2539;52.568;13.364;2022-12-07T05:31:20;3.20;99.90
5041;DHT22;2539;52.568;13.364;2022-12-07T05:33:47;3.20;99.90
5041;DHT22;2539;52.568;13.364;2022-12-07T05:36:13;3.20;99.90
5041;DHT22;2539;52.568;13.364;2022-12-07T05:38:40;3.20;99.90
5041;DHT22;2539;52.568;13.364;2022-12-07T05:41:07;3.30;99.90
5041;DHT22;2539;52.568;13.364;2022-12-07T05:43:55;3.40;99.90
5041;DHT22;2539;52.568;13.364;2022-12-07T05:46:21;3.30;99.90
5041;DHT22;2539;52.568;13.364;2022-12-07T05:48:47;3.30;99.90
5041;DHT22;2539;52.568;13.364;2022-12-07T05:51:14;3.30;99.90
5041;DHT22;2539;52.568;13.364;2022-12-07T05:53:40;3.40;99.90
5041;DHT22;2539;52.568;13.364;2022-12-07T05:56:06;3.30;99.90
5041;DHT22;2539;52.568;13.364;2022-12-07T05:58:32;3.40;99.90
5041;DHT22;2539;52.568;13.364;2022-12-07T06:01:16;3.40;99.90
5041;DHT22;2539;52.568;13.364;2022-12-07T06:03:42;3.40;99.90
5041;DHT22;2539;52.568;13.364;2022-12-07T06:06:08;3.40;99.90
5041;DHT22;2539;52.568;13.364;2022-12-07T06:08:35;3.50;99.90
5041;DHT22;2539;52.568;13.364;2022-12-07T06:11:01;3.50;99.90
5041;DHT22;2539;52.568;13.364;2022-12-07T06:13:46;3.50;99.90
5041;DHT22;2539;52.568;13.364;2022-12-07T06:16:12;3.50;99.90
5041;DHT22;2539;52.568;13.364;2022-12-07T06:18:38;3.50;99.90
5041;DHT22;2539;52.568;13.364;2022-12-07T06:21:05;3.50;99.90
5041;DHT22;2539;52.568;13.364;2022-12-07T06:23:31;3.50;99.90
5041;DHT22;2539;52.568;13.364;2022-12-07T06:25:57;3.50;99.90
5041;DHT22;2539;52.568;13.364;2022-12-07T06:28:24;3.50;99.90
5041;DHT22;2539;52.568;13.364;2022-12-07T06:31:01;3.50;99.90
5041;DHT22;2539;52.568;13.364;2022-12-07T06:33:28;3.50;99.90
5041;DHT22;2539;52.568;13.364;2022-12-07T06:35:54;3.50;99.90
5041;DHT22;2539;52.568;13.364;2022-12-07T06:38:21;3.40;99.90
5041;DHT22;2539;52.568;13.364;2022-12-07T06:40:47;3.40;99.90
5041;DHT22;2539;52.568;13.364;2022-12-07T06:43:13;3.40;99.90
5041;DHT22;2539;52.568;13.364;2022-12-07T06:45:40;3.40;99.90
5041;DHT22;2539;52.568;13.364;2022-12-07T06:48:06;3.40;99.90
5041;DHT22;2539;52.568;13.364;2022-12-07T06:50:33;3.40;99.90
5041;DHT22;2539;52.568;13.364;2022-12-07T06:52:59;3.40;99.90
5041;DHT22;2539;52.568;13.364;2022-12-07T06:55:25;3.40;99.90
5041;DHT22;2539;52.568;13.364;2022-12-07T06:57:52;3.50;99.90
5041;DHT22;2539;52.568;13.364;2022-12-07T07:00:18;3.50;99.90
5041;DHT22;2539;52.568;13.364;2022-12-07T07:02:45;3.50;99.90
5041;DHT22;2539;52.568;13.364;2022-12-07T07:05:11;3.50;99.90
5041;DHT22;2539;52.568;13.364;2022-12-07T07:07:37;4.80;99.90
5041;DHT22;2539;52.568;13.364;2022-12-07T07:10:03;3.50;99.90
5041;DHT22;2539;52.568;13.364;2022-12-07T07:12:29;3.60;99.90
5041;DHT22;2539;52.568;13.364;2022-12-07T07:14:54;3.60;99.90
5041;DHT22;2539;52.568;13.364;2022-12-07T07:17:20;3.60;99.90
5041;DHT22;2539;52.568;13.364;2022-12-07T07:19:47;3.60;99.90
5041;DHT22;2539;52.568;13.364;2022-12-07T07:22:13;3.70;99.90
5041;DHT22;2539;52.568;13.364;2022-12-07T07:24:39;3.70;99.90
5041;DHT22;2539;52.568;13.364;2022-12-07T07:27:05;3.70;99.90
5041;DHT22;2539;52.568;13.364;2022-12-07T07:29:32;3.60;99.90
5041;DHT22;2539;52.568;13.364;2022-12-07T07:31:59;2.80;99.90
5041;DHT22;2539;52.568;13.364;2022-12-07T07:34:26;3.60;99.90
5041;DHT22;2539;52.568;13.364;2022-12-07T07:36:52;3.70;99.90
5041;DHT22;2539;52.568;13.364;2022-12-07T07:39:18;3.60;99.90
5041;DHT22;2539;52.568;13.364;2022-12-07T07:41:44;3.60;99.90
5041;DHT22;2539;52.568;13.364;2022-12-07T07:44:11;3.60;99.90
5041;DHT22;2539;52.568;13.364;2022-12-07T07:46:37;3.70;99.90
5041;DHT22;2539;52.568;13.364;2022-12-07T07:49:03;3.70;99.90
5041;DHT22;2539;52.568;13.364;2022-12-07T07:51:28;3.70;99.90
5041;DHT22;2539;52.568;13.364;2022-12-07T07:53:54;3.70;99.90
5041;DHT22;2539;52.568;13.364;2022-12-07T07:58:46;3.80;99.90
5041;DHT22;2539;52.568;13.364;2022-12-07T08:11:05;3.80;99.90
5041;DHT22;2539;52.568;13.364;2022-12-07T08:13:31;3.80;99.90
5041;DHT22;2539;52.568;13.364;2022-12-07T08:15:58;3.80;99.90
5041;DHT22;2539;52.568;13.364;2022-12-07T08:25:43;3.80;99.90
5041;DHT22;2539;52.568;13.364;2022-12-07T08:30:35;3.90;99.90
5041;DHT22;2539;52.568;13.364;2022-12-07T08:33:01;3.90;99.90
5041;DHT22;2539;52.568;13.364;2022-12-07T08:35:27;3.90;99.90
5041;DHT22;2539;52.568;13.364;2022-12-07T08:42:50;3.90;99.90
5041;DHT22;2539;52.568;13.364;2022-12-07T08:45:18;3.80;99.90
5041;DHT22;2539;52.568;13.364;2022-12-07T08:47:55;3.80;99.90
5041;DHT22;2539;52.568;13.364;2022-12-07T08:50:23;3.80;99.90
5041;DHT22;2539;52.568;13.364;2022-12-07T08:52:52;3.90;99.90
5041;DHT22;2539;52.568;13.364;2022-12-07T08:55:19;3.90;99.90
5041;DHT22;2539;52.568;13.364;2022-12-07T08:57:46;3.90;99.90
5041;DHT22;2539;52.568;13.364;2022-12-07T09:00:16;3.90;99.90
5041;DHT22;2539;52.568;13.364;2022-12-07T09:05:12;3.90;99.90
5041;DHT22;2539;52.568;13.364;2022-12-07T09:07:42;3.90;99.90
5041;DHT22;2539;52.568;13.364;2022-12-07T09:10:10;3.90;99.90
5041;DHT22;2539;52.568;13.364;2022-12-07T09:17:32;3.80;99.90
5041;DHT22;2539;52.568;13.364;2022-12-07T09:19:59;3.80;99.90
5041;DHT22;2539;52.568;13.364;2022-12-07T09:22:30;3.90;99.90
5041;DHT22;2539;52.568;13.364;2022-12-07T09:24:58;3.80;99.90
5041;DHT22;2539;52.568;13.364;2022-12-07T09:27:25;4.70;99.90
5041;DHT22;2539;52.568;13.364;2022-12-07T09:37:11;3.70;99.90
5041;DHT22;2539;52.568;13.364;2022-12-07T09:39:38;3.70;99.90
5041;DHT22;2539;52.568;13.364;2022-12-07T09:42:05;3.70;99.90
5041;DHT22;2539;52.568;13.364;2022-12-07T09:44:32;3.80;99.90
5041;DHT22;2539;52.568;13.364;2022-12-07T09:46:59;3.70;99.90
5041;DHT22;2539;52.568;13.364;2022-12-07T09:49:28;3.60;99.90
5041;DHT22;2539;52.568;13.364;2022-12-07T09:54:36;3.50;99.90
5041;DHT22;2539;52.568;13.364;2022-12-07T09:57:05;3.50;99.90
5041;DHT22;2539;52.568;13.364;2022-12-07T09:59:32;3.50;99.90
5041;DHT22;2539;52.568;13.364;2022-12-07T10:02:25;3.60;99.90
5041;DHT22;2539;52.568;13.364;2022-12-07T10:04:53;3.50;99.90
5041;DHT22;2539;52.568;13.364;2022-12-07T10:07:20;3.50;99.90
5041;DHT22;2539;52.568;13.364;2022-12-07T10:09:47;3.50;99.90
5041;DHT22;2539;52.568;13.364;2022-12-07T10:12:13;3.50;99.90
5041;DHT22;2539;52.568;13.364;2022-12-07T10:14:56;3.60;99.90
5041;DHT22;2539;52.568;13.364;2022-12-07T10:17:37;3.50;99.90
5041;DHT22;2539;52.568;13.364;2022-12-07T10:22:59;3.60;99.90
5041;DHT22;2539;52.568;13.364;2022-12-07T10:25:34;3.60;99.90
5041;DHT22;2539;52.568;13.364;2022-12-07T10:30:33;3.70;99.90
5041;DHT22;2539;52.568;13.364;2022-12-07T10:32:59;3.50;99.90
5041;DHT22;2539;52.568;13.364;2022-12-07T10:35:28;3.50;99.90
5041;DHT22;2539;52.568;13.364;2022-12-07T10:37:57;3.50;99.90
5041;DHT22;2539;52.568;13.364;2022-12-07T10:40:35;3.60;99.90
5041;DHT22;2539;52.568;13.364;2022-12-07T10:49:35;3.50;99.90
5041;DHT22;2539;52.568;13.364;2022-12-07T10:51:49;3.50;99.90
5041;DHT22;2539;52.568;13.364;2022-12-07T10:54:50;3.40;99.90
5041;DHT22;2539;52.568;13.364;2022-12-07T10:57:28;3.40;99.90
5041;DHT22;2539;52.568;13.364;2022-12-07T11:02:36;3.50;99.90
5041;DHT22;2539;52.568;13.364;2022-12-07T11:05:39;3.70;99.90
5041;DHT22;2539;52.568;13.364;2022-12-07T11:08:20;3.80;99.90
5041;DHT22;2539;52.568;13.364;2022-12-07T11:11:01;3.80;99.90
5041;DHT22;2539;52.568;13.364;2022-12-07T11:19:58;3.70;99.90
5041;DHT22;2539;52.568;13.364;2022-12-07T11:22:33;3.70;99.90
5041;DHT22;2539;52.568;13.364;2022-12-07T11:25:48;3.70;99.90
5041;DHT22;2539;52.568;13.364;2022-12-07T11:33:45;3.80;99.90
5041;DHT22;2539;52.568;13.364;2022-12-07T11:36:37;3.80;99.90
5041;DHT22;2539;52.568;13.364;2022-12-07T11:41:47;3.90;99.90
5041;DHT22;2539;52.568;13.364;2022-12-07T11:44:48;3.90;99.90
5041;DHT22;2539;52.568;13.364;2022-12-07T11:47:47;3.90;99.90
5041;DHT22;2539;52.568;13.364;2022-12-07T11:50:36;3.90;99.90
5041;DHT22;2539;52.568;13.364;2022-12-07T12:03:49;4.10;99.90
5041;DHT22;2539;52.568;13.364;2022-12-07T12:06:17;4.20;99.90
5041;DHT22;2539;52.568;13.364;2022-12-07T12:08:47;4.20;99.90
5041;DHT22;2539;52.568;13.364;2022-12-07T12:17:15;4.00;99.90
5041;DHT22;2539;52.568;13.364;2022-12-07T12:22:56;4.10;99.90
5041;DHT22;2539;52.568;13.364;2022-12-07T12:25:36;4.20;99.90
5041;DHT22;2539;52.568;13.364;2022-12-07T12:28:04;4.20;99.90
5041;DHT22;2539;52.568;13.364;2022-12-07T12:30:39;4.30;99.90
5041;DHT22;2539;52.568;13.364;2022-12-07T12:33:26;4.30;99.90
5041;DHT22;2539;52.568;13.364;2022-12-07T12:36:22;4.40;99.90
5041;DHT22;2539;52.568;13.364;2022-12-07T12:39:08;4.30;99.90
5041;DHT22;2539;52.568;13.364;2022-12-07T12:47:38;4.30;99.90
5041;DHT22;2539;52.568;13.364;2022-12-07T12:50:16;4.40;99.90
5041;DHT22;2539;52.568;13.364;2022-12-07T12:57:36;4.30;99.90
5041;DHT22;2539;52.568;13.364;2022-12-07T13:00:21;4.30;99.90
5041;DHT22;2539;52.568;13.364;2022-12-07T13:02:53;4.30;99.90
5041;DHT22;2539;52.568;13.364;2022-12-07T13:05:25;4.30;99.90
5041;DHT22;2539;52.568;13.364;2022-12-07T13:07:58;4.50;99.90
5041;DHT22;2539;52.568;13.364;2022-12-07T13:18:36;4.30;99.90
5041;DHT22;2539;52.568;13.364;2022-12-07T13:29:10;4.10;99.90
5041;DHT22;2539;52.568;13.364;2022-12-07T13:34:28;4.20;99.90
5041;DHT22;2539;52.568;13.364;2022-12-07T13:36:52;4.30;99.90
5041;DHT22;2539;52.568;13.364;2022-12-07T13:39:21;4.20;99.90
5041;DHT22;2539;52.568;13.364;2022-12-07T13:41:58;4.20;99.90
5041;DHT22;2539;52.568;13.364;2022-12-07T13:44:27;4.20;99.90
5041;DHT22;2539;52.568;13.364;2022-12-07T13:47:13;4.30;99.90
5041;DHT22;2539;52.568;13.364;2022-12-07T13:49:53;4.30;99.90
5041;DHT22;2539;52.568;13.364;2022-12-07T13:52:25;4.40;99.90
5041;DHT22;2539;52.568;13.364;2022-12-07T13:55:14;4.30;99.90
5041;DHT22;2539;52.568;13.364;2022-12-07T13:57:41;4.30;99.90
5041;DHT22;2539;52.568;13.364;2022-12-07T14:00:16;4.30;99.90
5041;DHT22;2539;52.568;13.364;2022-12-07T14:05:33;4.40;99.90
5041;DHT22;2539;52.568;13.364;2022-12-07T14:08:05;4.40;99.90
5041;DHT22;2539;52.568;13.364;2022-12-07T14:10:34;4.30;99.90
5041;DHT22;2539;52.568;13.364;2022-12-07T14:13:03;4.30;99.90
5041;DHT22;2539;52.568;13.364;2022-12-07T14:15:34;4.30;99.90
5041;DHT22;2539;52.568;13.364;2022-12-07T14:18:02;4.30;99.90
5041;DHT22;2539;52.568;13.364;2022-12-07T14:20:40;4.30;99.90
5041;DHT22;2539;52.568;13.364;2022-12-07T14:23:24;4.30;99.90
5041;DHT22;2539;52.568;13.364;2022-12-07T14:25:52;4.30;99.90
5041;DHT22;2539;52.568;13.364;2022-12-07T14:28:29;4.30;99.90
5041;DHT22;2539;52.568;13.364;2022-12-07T14:30:56;4.30;99.90
5041;DHT22;2539;52.568;13.364;2022-12-07T14:33:24;4.20;99.90
5041;DHT22;2539;52.568;13.364;2022-12-07T14:35:51;4.30;99.90
5041;DHT22;2539;52.568;13.364;2022-12-07T14:38:21;4.30;99.90
5041;DHT22;2539;52.568;13.364;2022-12-07T14:40:48;4.30;99.90
5041;DHT22;2539;52.568;13.364;2022-12-07T14:43:16;4.20;99.90
5041;DHT22;2539;52.568;13.364;2022-12-07T14:45:44;4.20;99.90
5041;DHT22;2539;52.568;13.364;2022-12-07T14:48:12;4.10;99.90
5041;DHT22;2539;52.568;13.364;2022-12-07T14:50:43;4.10;99.90
5041;DHT22;2539;52.568;13.364;2022-12-07T14:53:14;4.00;99.90
5041;DHT22;2539;52.568;13.364;2022-12-07T14:55:41;3.90;99.90
5041;DHT22;2539;52.568;13.364;2022-12-07T14:58:15;3.90;99.90
5041;DHT22;2539;52.568;13.364;2022-12-07T15:00:41;3.70;99.90
5041;DHT22;2539;52.568;13.364;2022-12-07T15:03:08;3.70;99.90
5041;DHT22;2539;52.568;13.364;2022-12-07T15:05:35;3.70;99.90
5041;DHT22;2539;52.568;13.364;2022-12-07T15:08:01;5.20;99.90
5041;DHT22;2539;52.568;13.364;2022-12-07T15:10:33;3.50;99.90
5041;DHT22;2539;52.568;13.364;2022-12-07T15:13:00;3.50;99.90
5041;DHT22;2539;52.568;13.364;2022-12-07T15:15:51;3.50;99.90
5041;DHT22;2539;52.568;13.364;2022-12-07T15:18:17;3.50;99.90
5041;DHT22;2539;52.568;13.364;2022-12-07T15:20:44;3.70;99.90
5041;DHT22;2539;52.568;13.364;2022-12-07T15:23:11;3.60;99.90
5041;DHT22;2539;52.568;13.364;2022-12-07T15:25:44;3.70;99.90
5041;DHT22;2539;52.568;13.364;2022-12-07T15:28:10;3.60;99.90
5041;DHT22;2539;52.568;13.364;2022-12-07T15:30:40;3.50;99.90
5041;DHT22;2539;52.568;13.364;2022-12-07T15:33:08;3.50;99.90
5041;DHT22;2539;52.568;13.364;2022-12-07T15:35:37;3.40;99.90
5041;DHT22;2539;52.568;13.364;2022-12-07T15:38:04;3.40;99.90
5041;DHT22;2539;52.568;13.364;2022-12-07T15:40:30;3.40;99.90
5041;DHT22;2539;52.568;13.364;2022-12-07T15:42:57;3.50;99.90
5041;DHT22;2539;52.568;13.364;2022-12-07T15:45:24;3.50;99.90
5041;DHT22;2539;52.568;13.364;2022-12-07T15:47:50;3.60;99.90
5041;DHT22;2539;52.568;13.364;2022-12-07T15:50:16;3.50;99.90
5041;DHT22;2539;52.568;13.364;2022-12-07T15:52:43;3.60;99.90
5041;DHT22;2539;52.568;13.364;2022-12-07T15:55:10;3.60;99.90
5041;DHT22;2539;52.568;13.364;2022-12-07T15:57:38;3.60;99.90
5041;DHT22;2539;52.568;13.364;2022-12-07T16:00:05;3.80;99.90
5041;DHT22;2539;52.568;13.364;2022-12-07T16:02:32;3.70;99.90
5041;DHT22;2539;52.568;13.364;2022-12-07T16:04:59;3.70;99.90
5041;DHT22;2539;52.568;13.364;2022-12-07T16:07:25;3.70;99.90
5041;DHT22;2539;52.568;13.364;2022-12-07T16:12:34;3.70;99.90
5041;DHT22;2539;52.568;13.364;2022-12-07T16:15:01;3.60;99.90
5041;DHT22;2539;52.568;13.364;2022-12-07T16:17:26;3.60;99.90
5041;DHT22;2539;52.568;13.364;2022-12-07T16:19:52;3.50;99.90
5041;DHT22;2539;52.568;13.364;2022-12-07T16:22:18;3.40;99.90
5041;DHT22;2539;52.568;13.364;2022-12-07T16:24:44;3.40;99.90
5041;DHT22;2539;52.568;13.364;2022-12-07T16:27:10;3.40;99.90
5041;DHT22;2539;52.568;13.364;2022-12-07T16:32:03;3.30;99.90
5041;DHT22;2539;52.568;13.364;2022-12-07T16:34:30;3.20;99.90
5041;DHT22;2539;52.568;13.364;2022-12-07T16:39:23;3.10;99.90
5041;DHT22;2539;52.568;13.364;2022-12-07T16:41:50;3.10;99.90
5041;DHT22;2539;52.568;13.364;2022-12-07T16:49:15;3.00;99.90
5041;DHT22;2539;52.568;13.364;2022-12-07T16:51:42;3.00;99.90
5041;DHT22;2539;52.568;13.364;2022-12-07T16:54:11;2.90;99.90
5041;DHT22;2539;52.568;13.364;2022-12-07T16:56:37;2.80;99.90
5041;DHT22;2539;52.568;13.364;2022-12-07T16:59:04;2.70;99.90
5041;DHT22;2539;52.568;13.364;2022-12-07T17:01:30;2.70;99.90
5041;DHT22;2539;52.568;13.364;2022-12-07T17:04:00;2.70;99.90
5041;DHT22;2539;52.568;13.364;2022-12-07T17:06:27;2.60;99.90
5041;DHT22;2539;52.568;13.364;2022-12-07T17:08:53;2.70;99.90
5041;DHT22;2539;52.568;13.364;2022-12-07T17:11:22;2.70;99.90
5041;DHT22;2539;52.568;13.364;2022-12-07T17:13:49;2.70;99.90
5041;DHT22;2539;52.568;13.364;2022-12-07T17:16:34;2.80;99.90
5041;DHT22;2539;52.568;13.364;2022-12-07T17:19:06;2.60;99.90
5041;DHT22;2539;52.568;13.364;2022-12-07T17:21:33;2.60;99.90
5041;DHT22;2539;52.568;13.364;2022-12-07T17:24:00;2.50;99.90
5041;DHT22;2539;52.568;13.364;2022-12-07T17:26:28;2.50;99.90
5041;DHT22;2539;52.568;13.364;2022-12-07T17:28:55;2.50;99.90
5041;DHT22;2539;52.568;13.364;2022-12-07T17:31:22;2.50;99.90
5041;DHT22;2539;52.568;13.364;2022-12-07T17:33:49;2.50;99.90
5041;DHT22;2539;52.568;13.364;2022-12-07T17:36:35;2.50;99.90
5041;DHT22;2539;52.568;13.364;2022-12-07T17:39:09;2.60;99.90
5041;DHT22;2539;52.568;13.364;2022-12-07T17:41:36;2.50;99.90
5041;DHT22;2539;52.568;13.364;2022-12-07T17:44:22;2.40;99.90
5041;DHT22;2539;52.568;13.364;2022-12-07T17:46:51;2.40;99.90
5041;DHT22;2539;52.568;13.364;2022-12-07T17:49:23;2.50;99.90
5041;DHT22;2539;52.568;13.364;2022-12-07T17:51:49;2.50;99.90
5041;DHT22;2539;52.568;13.364;2022-12-07T17:57:01;2.40;99.90
5041;DHT22;2539;52.568;13.364;2022-12-07T17:59:28;2.30;99.90
5041;DHT22;2539;52.568;13.364;2022-12-07T18:01:54;2.10;99.90
5041;DHT22;2539;52.568;13.364;2022-12-07T18:04:20;2.20;99.90
5041;DHT22;2539;52.568;13.364;2022-12-07T18:06:46;2.20;99.90
5041;DHT22;2539;52.568;13.364;2022-12-07T18:09:12;2.10;99.90
5041;DHT22;2539;52.568;13.364;2022-12-07T18:14:04;2.20;99.90
5041;DHT22;2539;52.568;13.364;2022-12-07T18:16:31;2.20;99.90
5041;DHT22;2539;52.568;13.364;2022-12-07T18:19:00;2.20;99.90
5041;DHT22;2539;52.568;13.364;2022-12-07T18:21:29;2.10;99.90
5041;DHT22;2539;52.568;13.364;2022-12-07T18:24:01;2.00;99.90
5041;DHT22;2539;52.568;13.364;2022-12-07T18:26:29;2.00;99.90
5041;DHT22;2539;52.568;13.364;2022-12-07T18:28:58;1.50;99.90
5041;DHT22;2539;52.568;13.364;2022-12-07T18:31:26;1.90;99.90
5041;DHT22;2539;52.568;13.364;2022-12-07T18:33:52;1.80;99.90
5041;DHT22;2539;52.568;13.364;2022-12-07T18:36:21;1.70;99.90
5041;DHT22;2539;52.568;13.364;2022-12-07T18:38:48;1.70;99.90
5041;DHT22;2539;52.568;13.364;2022-12-07T18:41:14;1.70;99.90
5041;DHT22;2539;52.568;13.364;2022-12-07T18:43:41;1.80;99.90
5041;DHT22;2539;52.568;13.364;2022-12-07T18:46:12;1.60;99.90
5041;DHT22;2539;52.568;13.364;2022-12-07T18:48:39;1.60;99.90
5041;DHT22;2539;52.568;13.364;2022-12-07T18:51:06;1.60;99.90
5041;DHT22;2539;52.568;13.364;2022-12-07T18:53:33;1.60;99.90
5041;DHT22;2539;52.568;13.364;2022-12-07T18:56:05;1.60;99.90
5041;DHT22;2539;52.568;13.364;2022-12-07T18:58:31;1.60;99.90
5041;DHT22;2539;52.568;13.364;2022-12-07T19:00:58;1.60;99.90
5041;DHT22;2539;52.568;13.364;2022-12-07T19:03:25;1.50;99.90
5041;DHT22;2539;52.568;13.364;2022-12-07T19:05:51;1.50;99.90